Time;durP1;ratioP1;P1;durP2;ratioP2;P2;SDS_P1;SDS_P2;PMS_P1;PMS_P2;Temp;Humidity;BMP_temperature;BMP_pressure;BME280_temperature;BME280_humidity;BME280_pressure;Samples;Min_cycle;Max_cycle;Signal;HPM_P1;HPM_P2
2021/05/18 00:01:32;;;;;;;1.73;0.30;;;;;;;;;;4993846;28;20558;-70
2021/05/18 00:04:36;;;;;;;1.53;0.40;;;;;;;;;;4993521;28;20696;-70
2021/05/18 00:07:51;;;;;;;2.33;0.60;;;;;;;;;;4996579;28;20190;-70
2021/05/18 00:14:26;;;;;;;0.80;0.40;;;;;;;;;;5016797;28;20189;-70
2021/05/18 00:17:31;;;;;;;1.27;0.50;;;;;;;;;;4994048;28;20186;-70
2021/05/18 00:20:35;;;;;;;3.20;0.50;;;;;;;;;;5004935;28;20186;-70
2021/05/18 00:23:40;;;;;;;0.40;0.40;;;;;;;;;;5006308;28;20217;-70
2021/05/18 00:26:44;;;;;;;1.87;0.50;;;;;;;;;;4997643;28;20629;-70
2021/05/18 00:29:49;;;;;;;1.67;0.40;;;;;;;;;;4997323;28;20190;-70
2021/05/18 00:32:53;;;;;;;1.27;0.40;;;;;;;;;;4997258;28;20217;-71
2021/05/18 00:35:58;;;;;;;1.03;0.57;;;;;;;;;;4998167;28;20198;-70
2021/05/18 00:39:04;;;;;;;0.53;0.30;;;;;;;;;;4996966;28;20202;-70
2021/05/18 00:42:17;;;;;;;0.43;0.40;;;;;;;;;;5010151;28;20222;-71
2021/05/18 00:45:31;;;;;;;0.77;0.53;;;;;;;;;;5016715;28;20209;-70
2021/05/18 00:48:40;;;;;;;2.77;0.53;;;;;;;;;;5017014;28;20194;-71
2021/05/18 00:51:45;;;;;;;1.27;0.50;;;;;;;;;;5016655;28;20221;-70
2021/05/18 00:54:58;;;;;;;1.50;0.40;;;;;;;;;;5006809;28;20185;-71
2021/05/18 01:01:29;;;;;;;0.50;0.40;;;;;;;;;;5015868;28;20217;-71
2021/05/18 01:04:39;;;;;;;0.50;0.40;;;;;;;;;;5011733;28;20213;-71
2021/05/18 01:07:49;;;;;;;1.77;0.50;;;;;;;;;;5011268;28;20535;-71
2021/05/18 01:10:54;;;;;;;0.40;0.40;;;;;;;;;;4996636;28;20514;-70
2021/05/18 01:14:03;;;;;;;0.60;0.30;;;;;;;;;;4996672;28;20206;-70
2021/05/18 01:17:08;;;;;;;2.23;0.40;;;;;;;;;;4996200;28;20178;-71
2021/05/18 01:20:13;;;;;;;0.53;0.40;;;;;;;;;;4997299;28;20182;-71
2021/05/18 01:23:17;;;;;;;1.73;0.70;;;;;;;;;;4996166;28;20217;-71
2021/05/18 01:26:25;;;;;;;0.70;0.40;;;;;;;;;;4985434;28;20190;-71
2021/05/18 01:29:29;;;;;;;1.90;0.30;;;;;;;;;;5003257;28;20201;-71
2021/05/18 01:32:35;;;;;;;2.80;0.70;;;;;;;;;;4989088;28;20226;-70
2021/05/18 01:35:40;;;;;;;0.30;0.30;;;;;;;;;;4996281;28;20618;-70
2021/05/18 01:45:25;;;;;;;1.03;0.47;;;;;;;;;;4983946;28;20210;-71
2021/05/18 01:48:35;;;;;;;0.80;0.37;;;;;;;;;;4990282;28;20676;-71
2021/05/18 01:51:45;;;;;;;1.37;0.50;;;;;;;;;;5003683;28;20553;-70
2021/05/18 01:54:51;;;;;;;0.70;0.60;;;;;;;;;;4984621;28;20641;-71
2021/05/18 01:57:56;;;;;;;0.73;0.53;;;;;;;;;;4995645;28;20182;-71
2021/05/18 02:01:02;;;;;;;1.57;0.40;;;;;;;;;;4984694;28;20182;-71
2021/05/18 02:04:07;;;;;;;0.60;0.33;;;;;;;;;;4995429;28;20230;-71
2021/05/18 02:07:19;;;;;;;2.60;0.60;;;;;;;;;;4995390;28;20635;-71
2021/05/18 02:10:24;;;;;;;1.00;0.40;;;;;;;;;;4983404;28;20197;-71
2021/05/18 02:13:47;;;;;;;0.80;0.40;;;;;;;;;;4993047;28;20194;-70
2021/05/18 02:20:37;;;;;;;3.80;0.50;;;;;;;;;;5002676;28;20193;-71
2021/05/18 02:27:29;;;;;;;0.87;0.40;;;;;;;;;;5003064;28;20202;-71
2021/05/18 02:30:33;;;;;;;1.33;0.50;;;;;;;;;;4982611;28;20645;-71
2021/05/18 02:33:39;;;;;;;1.40;0.40;;;;;;;;;;4983262;28;20182;-70
2021/05/18 02:36:43;;;;;;;0.30;0.30;;;;;;;;;;4995139;28;20637;-71
2021/05/18 02:39:47;;;;;;;0.33;0.33;;;;;;;;;;4996781;28;20649;-71
2021/05/18 02:42:52;;;;;;;0.70;0.50;;;;;;;;;;5014691;28;20288;-70
2021/05/18 02:46:06;;;;;;;0.80;0.40;;;;;;;;;;5012782;28;20679;-71
2021/05/18 02:49:12;;;;;;;1.70;0.40;;;;;;;;;;5002314;28;20182;-71
2021/05/18 02:52:18;;;;;;;0.83;0.50;;;;;;;;;;4998543;28;20700;-71
2021/05/18 02:55:46;;;;;;;2.13;0.50;;;;;;;;;;4979085;28;20645;-71
2021/05/18 03:02:10;;;;;;;1.17;0.53;;;;;;;;;;4997768;28;20213;-71
2021/05/18 03:05:14;;;;;;;0.73;0.30;;;;;;;;;;5010156;28;20229;-71
2021/05/18 03:08:20;;;;;;;0.30;0.30;;;;;;;;;;5004840;28;20201;-71
2021/05/18 03:11:25;;;;;;;0.50;0.40;;;;;;;;;;4978407;28;20202;-71
2021/05/18 03:14:29;;;;;;;0.90;0.40;;;;;;;;;;4978301;28;20194;-71
2021/05/18 03:17:35;;;;;;;0.40;0.30;;;;;;;;;;4990458;28;20178;-71
2021/05/18 03:20:40;;;;;;;0.30;0.30;;;;;;;;;;4995040;28;20193;-71
2021/05/18 03:23:44;;;;;;;0.77;0.40;;;;;;;;;;4993593;28;20198;-71
2021/05/18 03:26:50;;;;;;;0.57;0.40;;;;;;;;;;4990024;28;20189;-71
2021/05/18 03:29:55;;;;;;;2.00;0.50;;;;;;;;;;4990199;28;20206;-71
2021/05/18 03:36:22;;;;;;;0.73;0.50;;;;;;;;;;4990244;28;20174;-71
2021/05/18 03:39:27;;;;;;;0.90;0.50;;;;;;;;;;4977924;28;20202;-71
2021/05/18 03:42:37;;;;;;;1.83;0.50;;;;;;;;;;4989966;28;20711;-71
2021/05/18 03:45:49;;;;;;;0.60;0.30;;;;;;;;;;4990042;28;20206;-71
2021/05/18 03:52:24;;;;;;;0.77;0.50;;;;;;;;;;5009850;28;20221;-71
2021/05/18 04:18:49;;;;;;;0.40;0.40;;;;;;;;;;4990012;28;20187;-71
2021/05/18 04:39:01;;;;;;;0.60;0.50;;;;;;;;;;4967985;28;20203;-72
2021/05/18 04:55:23;;;;;;;2.67;0.60;;;;;;;;;;4977171;28;20203;-72
2021/05/18 05:08:01;;;;;;;1.83;1.00;;;;;;;;;;4965587;28;20179;-72
2021/05/18 05:14:20;;;;;;;4.10;1.00;;;;;;;;;;4989877;28;20190;-71
2021/05/18 05:17:24;;;;;;;1.07;0.50;;;;;;;;;;4965107;28;20631;-72
2021/05/18 05:20:29;;;;;;;1.90;0.50;;;;;;;;;;4977269;28;20183;-72
2021/05/18 05:23:34;;;;;;;1.80;0.40;;;;;;;;;;4958577;28;20201;-71
2021/05/18 05:26:39;;;;;;;0.40;0.40;;;;;;;;;;4994256;28;20569;-71
2021/05/18 05:29:43;;;;;;;0.67;0.40;;;;;;;;;;4996252;28;20198;-72
2021/05/18 05:32:47;;;;;;;0.53;0.40;;;;;;;;;;4995807;28;20221;-72
2021/05/18 05:35:51;;;;;;;1.43;0.60;;;;;;;;;;4983952;28;20190;-72
2021/05/18 05:39:02;;;;;;;0.93;0.50;;;;;;;;;;4995352;28;20202;-71
2021/05/18 05:42:06;;;;;;;0.70;0.40;;;;;;;;;;4964255;28;20227;-72
2021/05/18 05:45:12;;;;;;;0.70;0.50;;;;;;;;;;4964621;28;20222;-71
2021/05/18 05:48:18;;;;;;;1.60;0.60;;;;;;;;;;4964331;28;20537;-72
2021/05/18 05:51:24;;;;;;;1.20;0.53;;;;;;;;;;4989820;28;20190;-71
2021/05/18 05:54:29;;;;;;;1.50;0.50;;;;;;;;;;4982992;28;20195;-71
2021/05/18 05:57:34;;;;;;;4.03;0.60;;;;;;;;;;4975316;28;20175;-71
2021/05/18 06:00:39;;;;;;;2.33;0.50;;;;;;;;;;4974877;28;20183;-71
2021/05/18 06:03:43;;;;;;;2.27;0.60;;;;;;;;;;4974112;28;20187;-70
2021/05/18 06:06:48;;;;;;;0.63;0.50;;;;;;;;;;4969106;28;20210;-71
2021/05/18 06:10:00;;;;;;;2.00;0.50;;;;;;;;;;4993382;28;20198;-71
2021/05/18 06:47:12;;;;;;;1.30;0.50;;;;;;;;;;4975194;28;20219;-71
2021/05/18 06:53:21;;;;;;;0.60;0.40;;;;;;;;;;4963286;28;20226;-71
2021/05/18 06:56:32;;;;;;;2.10;0.40;;;;;;;;;;4979073;28;20182;-70
2021/05/18 07:02:59;;;;;;;0.40;0.40;;;;;;;;;;4976459;28;20222;-70
2021/05/18 07:09:27;;;;;;;0.67;0.50;;;;;;;;;;4994553;28;20617;-72
2021/05/18 07:12:31;;;;;;;0.40;0.40;;;;;;;;;;4974729;28;20222;-71
2021/05/18 07:15:35;;;;;;;0.60;0.40;;;;;;;;;;4962694;28;20183;-72
2021/05/18 07:18:39;;;;;;;0.50;0.40;;;;;;;;;;4984052;28;20194;-71
2021/05/18 07:21:44;;;;;;;0.47;0.43;;;;;;;;;;4962999;28;20223;-72
2021/05/18 07:24:48;;;;;;;1.60;0.50;;;;;;;;;;4974842;28;20182;-71
2021/05/18 07:27:51;;;;;;;2.53;0.60;;;;;;;;;;4962463;28;20241;-72
2021/05/18 07:30:56;;;;;;;3.83;0.53;;;;;;;;;;4974470;28;20203;-71
2021/05/18 07:34:00;;;;;;;1.63;0.50;;;;;;;;;;4962942;28;20626;-71
2021/05/18 07:37:05;;;;;;;0.77;0.40;;;;;;;;;;4962791;28;20191;-71
2021/05/18 07:40:09;;;;;;;0.73;0.40;;;;;;;;;;4962689;28;20197;-72
2021/05/18 07:43:17;;;;;;;0.93;0.40;;;;;;;;;;4974236;28;20222;-71
2021/05/18 07:46:23;;;;;;;0.70;0.50;;;;;;;;;;4962558;28;20215;-71
2021/05/18 07:49:31;;;;;;;0.90;0.40;;;;;;;;;;4973884;28;20198;-71
2021/05/18 08:02:34;;;;;;;1.67;0.47;;;;;;;;;;4978649;28;20213;-71
2021/05/18 08:05:40;;;;;;;1.43;0.67;;;;;;;;;;4951440;28;20198;-71
2021/05/18 08:08:46;;;;;;;0.70;0.70;;;;;;;;;;4974052;28;20186;-72
2021/05/18 08:11:50;;;;;;;0.90;0.60;;;;;;;;;;4983319;28;20226;-71
2021/05/18 08:18:59;;;;;;;2.43;1.13;;;;;;;;;;4960039;28;20198;-71
2021/05/18 10:34:28;;;;;;;1.57;0.40;;;;;;;;;;4993941;28;20194;-72
2021/05/18 10:37:46;;;;;;;0.47;0.40;;;;;;;;;;4975470;28;20191;-72
2021/05/18 10:40:52;;;;;;;0.80;0.40;;;;;;;;;;4952696;28;20183;-73
2021/05/18 10:44:01;;;;;;;1.80;0.30;;;;;;;;;;4963805;28;20183;-72
2021/05/18 10:47:05;;;;;;;1.00;0.30;;;;;;;;;;4981641;28;20562;-72
2021/05/18 10:50:12;;;;;;;0.20;0.20;;;;;;;;;;4974879;28;20199;-72
2021/05/18 10:53:27;;;;;;;0.30;0.30;;;;;;;;;;4984812;28;20222;-72
2021/05/18 10:57:02;;;;;;;0.63;0.30;;;;;;;;;;4967651;28;20195;-71
2021/05/18 11:00:08;;;;;;;1.60;0.50;;;;;;;;;;4975446;28;20183;-71
2021/05/18 11:03:12;;;;;;;0.60;0.30;;;;;;;;;;4954372;28;20570;-72
2021/05/18 11:06:16;;;;;;;0.70;0.40;;;;;;;;;;4993382;28;20198;-75
2021/05/18 11:09:21;;;;;;;0.30;0.30;;;;;;;;;;4982655;28;20641;-74
2021/05/18 11:12:26;;;;;;;0.93;0.40;;;;;;;;;;4993871;28;20222;-72
2021/05/18 11:15:31;;;;;;;0.60;0.40;;;;;;;;;;5009707;23;20983;-72
2021/05/18 11:18:35;;;;;;;0.50;0.33;;;;;;;;;;5005427;28;20189;-71
2021/05/18 11:21:54;;;;;;;0.73;0.73;;;;;;;;;;5009925;28;20224;-72
2021/05/18 11:24:59;;;;;;;0.50;0.40;;;;;;;;;;5007065;28;20189;-71
2021/05/18 11:28:13;;;;;;;0.83;0.50;;;;;;;;;;5007421;28;20221;-72
2021/05/18 11:31:20;;;;;;;0.40;0.40;;;;;;;;;;5009021;28;20189;-71
2021/05/18 11:34:24;;;;;;;0.90;0.40;;;;;;;;;;4995413;28;20541;-72
2021/05/18 11:37:30;;;;;;;0.97;0.47;;;;;;;;;;4989263;28;20193;-72
2021/05/18 11:40:50;;;;;;;0.40;0.30;;;;;;;;;;5008194;28;20190;-72
2021/05/18 11:43:56;;;;;;;1.07;0.30;;;;;;;;;;4990594;28;20187;-72
2021/05/18 11:47:00;;;;;;;0.57;0.40;;;;;;;;;;4990404;28;20214;-72
2021/05/18 11:50:05;;;;;;;0.40;0.30;;;;;;;;;;4988374;28;20201;-72
2021/05/18 11:53:27;;;;;;;0.77;0.30;;;;;;;;;;4993428;28;20221;-72
2021/05/18 11:56:37;;;;;;;0.97;0.30;;;;;;;;;;5009931;28;20182;-70
2021/05/18 11:59:42;;;;;;;1.57;0.50;;;;;;;;;;5004750;28;20190;-74
2021/05/18 12:02:47;;;;;;;0.60;0.40;;;;;;;;;;4996472;28;20222;-71
2021/05/18 12:05:56;;;;;;;0.60;0.40;;;;;;;;;;4998859;28;20190;-72
2021/05/18 12:09:01;;;;;;;3.10;1.03;;;;;;;;;;5015719;28;20213;-73
2021/05/18 12:12:11;;;;;;;1.17;0.50;;;;;;;;;;5012586;28;20217;-72
2021/05/18 12:15:16;;;;;;;3.23;0.50;;;;;;;;;;5006570;28;20581;-72
2021/05/18 12:18:20;;;;;;;1.77;0.53;;;;;;;;;;5004084;28;20189;-70
2021/05/18 12:21:27;;;;;;;4.17;3.13;;;;;;;;;;4999504;28;20206;-70
2021/05/18 12:24:38;;;;;;;11.50;7.20;;;;;;;;;;5017058;28;20637;-71
2021/05/18 12:27:44;;;;;;;0.77;0.60;;;;;;;;;;5004847;28;20224;-70
2021/05/18 12:30:48;;;;;;;8.83;4.50;;;;;;;;;;5017184;28;20668;-71
2021/05/18 12:33:52;;;;;;;3.60;2.07;;;;;;;;;;4997466;28;20664;-70
2021/05/18 12:36:56;;;;;;;6.97;2.90;;;;;;;;;;4996405;28;20189;-71
2021/05/18 12:40:07;;;;;;;2.73;1.67;;;;;;;;;;5016837;28;20200;-71
2021/05/18 12:43:22;;;;;;;22.70;14.03;;;;;;;;;;4998967;28;20221;-71
2021/05/18 12:46:26;;;;;;;5.60;3.60;;;;;;;;;;4991908;28;20193;-70
2021/05/18 12:49:40;;;;;;;14.20;9.20;;;;;;;;;;5009201;28;20182;-71
2021/05/18 12:52:48;;;;;;;14.43;9.27;;;;;;;;;;5000501;28;20221;-71
2021/05/18 12:55:54;;;;;;;5.93;4.13;;;;;;;;;;4996831;28;20198;-71
2021/05/18 12:59:08;;;;;;;6.47;3.90;;;;;;;;;;4985091;28;20179;-71
2021/05/18 13:02:37;;;;;;;3.23;2.50;;;;;;;;;;5008896;28;20222;-70
2021/05/18 13:05:53;;;;;;;2.73;1.50;;;;;;;;;;4997251;28;20186;-71
2021/05/18 13:08:57;;;;;;;0.93;0.83;;;;;;;;;;4996543;28;20542;-71
2021/05/18 13:12:12;;;;;;;4.30;0.73;;;;;;;;;;5009950;28;20707;-71
2021/05/18 13:15:21;;;;;;;0.97;0.80;;;;;;;;;;4999207;28;20209;-71
2021/05/18 13:18:25;;;;;;;2.50;1.20;;;;;;;;;;5016034;28;20513;-71
2021/05/18 13:21:38;;;;;;;1.03;0.70;;;;;;;;;;5016246;28;20213;-71
2021/05/18 13:28:05;;;;;;;0.97;0.47;;;;;;;;;;4999051;28;20210;-70
2021/05/18 13:31:10;;;;;;;1.23;0.40;;;;;;;;;;5011666;28;20201;-70
2021/05/18 13:34:14;;;;;;;1.27;0.50;;;;;;;;;;5011721;28;20189;-70
2021/05/18 13:37:19;;;;;;;5.03;0.70;;;;;;;;;;4996117;28;20198;-72
2021/05/18 13:40:25;;;;;;;0.73;0.50;;;;;;;;;;5002728;28;20533;-71
2021/05/18 13:43:29;;;;;;;1.57;0.50;;;;;;;;;;5006624;28;20213;-72
2021/05/18 13:46:34;;;;;;;0.90;0.40;;;;;;;;;;4998570;28;20529;-71
2021/05/18 13:49:40;;;;;;;3.23;0.50;;;;;;;;;;4996193;28;20190;-72
2021/05/18 13:52:43;;;;;;;0.50;0.30;;;;;;;;;;4995739;28;20226;-71
2021/05/18 13:55:47;;;;;;;2.70;1.30;;;;;;;;;;4983763;28;20182;-71
2021/05/18 13:58:53;;;;;;;1.67;0.70;;;;;;;;;;5002447;28;20185;-70
2021/05/18 14:01:57;;;;;;;2.00;0.47;;;;;;;;;;5005152;28;20573;-71
2021/05/18 14:05:03;;;;;;;1.80;0.30;;;;;;;;;;5013703;28;20193;-71
2021/05/18 14:11:31;;;;;;;0.70;0.30;;;;;;;;;;4995699;28;20222;-71
2021/05/18 14:14:36;;;;;;;1.00;0.40;;;;;;;;;;4996496;28;20210;-71
2021/05/18 14:17:40;;;;;;;0.60;0.50;;;;;;;;;;4995519;28;20186;-71
2021/05/18 14:20:45;;;;;;;1.13;0.70;;;;;;;;;;4983643;28;20519;-71
2021/05/18 14:26:56;;;;;;;4.47;1.40;;;;;;;;;;5013847;28;20194;-72
2021/05/18 14:30:02;;;;;;;3.47;0.70;;;;;;;;;;5014569;28;20193;-72
2021/05/18 14:33:07;;;;;;;2.17;1.03;;;;;;;;;;5013928;28;20209;-71
2021/05/18 14:36:12;;;;;;;1.67;1.10;;;;;;;;;;5004004;28;20526;-71
2021/05/18 14:39:23;;;;;;;5.63;2.77;;;;;;;;;;5014628;28;20193;-71
2021/05/18 14:45:53;;;;;;;2.33;0.70;;;;;;;;;;4994802;28;20187;-74
2021/05/18 14:55:33;;;;;;;0.93;0.40;;;;;;;;;;4998309;28;20190;-73
2021/05/18 14:58:37;;;;;;;1.40;0.47;;;;;;;;;;4982994;28;20648;-74
2021/05/18 15:01:41;;;;;;;0.90;0.70;;;;;;;;;;4979718;28;20221;-73
2021/05/18 15:04:45;;;;;;;1.97;0.57;;;;;;;;;;5004197;28;20545;-72
2021/05/18 15:07:50;;;;;;;0.60;0.43;;;;;;;;;;4996533;28;20216;-72
2021/05/18 15:10:58;;;;;;;0.53;0.40;;;;;;;;;;5010684;28;20518;-72
2021/05/18 15:14:03;;;;;;;0.50;0.47;;;;;;;;;;4990463;28;20198;-72
2021/05/18 15:17:08;;;;;;;0.60;0.40;;;;;;;;;;4978890;28;20182;-72
2021/05/18 15:20:13;;;;;;;1.10;0.50;;;;;;;;;;5003357;28;20193;-72
2021/05/18 15:23:17;;;;;;;2.20;0.30;;;;;;;;;;5006810;28;20217;-72
2021/05/18 15:26:22;;;;;;;1.80;0.60;;;;;;;;;;4978441;28;20178;-72
2021/05/18 15:29:27;;;;;;;1.00;0.40;;;;;;;;;;5005983;28;20209;-73
2021/05/18 15:32:31;;;;;;;1.23;0.20;;;;;;;;;;5010264;28;20213;-73
2021/05/18 15:35:35;;;;;;;0.43;0.30;;;;;;;;;;4996595;28;20181;-73
2021/05/18 15:38:39;;;;;;;0.30;0.30;;;;;;;;;;5009422;28;20213;-72
2021/05/18 15:41:44;;;;;;;0.93;0.20;;;;;;;;;;5002519;28;20570;-73
2021/05/18 15:44:48;;;;;;;1.10;0.40;;;;;;;;;;5008520;28;20185;-73
2021/05/18 15:47:53;;;;;;;0.30;0.30;;;;;;;;;;4999412;28;20664;-74
2021/05/18 15:50:57;;;;;;;0.87;0.50;;;;;;;;;;4995782;28;20197;-73
2021/05/18 15:54:04;;;;;;;1.40;0.53;;;;;;;;;;5008280;28;20198;-74
2021/05/18 15:57:10;;;;;;;1.57;0.47;;;;;;;;;;4997745;28;20186;-73
2021/05/18 16:00:14;;;;;;;1.80;0.40;;;;;;;;;;4990206;28;20528;-72
2021/05/18 16:03:20;;;;;;;0.93;0.67;;;;;;;;;;4987602;28;20220;-73
2021/05/18 16:06:25;;;;;;;0.90;0.40;;;;;;;;;;5002285;28;20198;-73
2021/05/18 16:09:29;;;;;;;0.23;0.23;;;;;;;;;;4990758;28;20566;-73
2021/05/18 16:12:33;;;;;;;0.70;0.40;;;;;;;;;;5004290;28;20221;-72
2021/05/18 16:15:37;;;;;;;0.47;0.40;;;;;;;;;;5009284;28;20209;-72
2021/05/18 16:18:43;;;;;;;0.73;0.50;;;;;;;;;;5003136;28;20194;-74
2021/05/18 16:21:48;;;;;;;0.40;0.37;;;;;;;;;;4989746;28;20222;-73
2021/05/18 16:24:52;;;;;;;1.20;0.40;;;;;;;;;;4989644;28;20185;-73
2021/05/18 16:27:57;;;;;;;0.40;0.40;;;;;;;;;;4979808;28;20190;-73
2021/05/18 16:31:02;;;;;;;0.60;0.43;;;;;;;;;;4967821;28;20198;-73
2021/05/18 16:34:07;;;;;;;0.77;0.30;;;;;;;;;;4989771;28;20198;-73
2021/05/18 16:37:11;;;;;;;0.60;0.40;;;;;;;;;;4977427;28;20206;-73
2021/05/18 16:40:16;;;;;;;0.87;0.33;;;;;;;;;;5002370;28;20517;-73
2021/05/18 16:43:21;;;;;;;0.77;0.50;;;;;;;;;;4977440;28;20217;-74
2021/05/18 16:46:26;;;;;;;1.60;0.40;;;;;;;;;;4989636;28;20198;-73
2021/05/18 16:49:30;;;;;;;1.37;0.70;;;;;;;;;;5003813;28;20221;-74
2021/05/18 16:52:36;;;;;;;0.40;0.40;;;;;;;;;;5001774;28;20572;-73
2021/05/18 16:55:40;;;;;;;0.40;0.30;;;;;;;;;;4996146;28;20545;-73
2021/05/18 16:58:44;;;;;;;0.57;0.50;;;;;;;;;;4998902;28;20197;-73
2021/05/18 17:01:49;;;;;;;0.60;0.50;;;;;;;;;;5012534;28;20216;-73
2021/05/18 17:04:54;;;;;;;0.87;0.50;;;;;;;;;;5012984;28;20182;-72
2021/05/18 17:08:05;;;;;;;1.40;0.60;;;;;;;;;;5000780;28;20185;-73
2021/05/18 17:11:10;;;;;;;0.40;0.33;;;;;;;;;;5012554;28;20640;-73
2021/05/18 17:14:15;;;;;;;1.40;0.50;;;;;;;;;;5012289;28;20205;-73
2021/05/18 17:17:19;;;;;;;3.63;0.67;;;;;;;;;;5012585;28;20185;-73
2021/05/18 17:20:26;;;;;;;0.90;0.40;;;;;;;;;;5012368;28;20182;-73
2021/05/18 17:23:31;;;;;;;1.07;0.60;;;;;;;;;;5000141;28;20217;-73
2021/05/18 17:26:36;;;;;;;1.20;0.60;;;;;;;;;;4999820;28;20197;-73
2021/05/18 17:29:40;;;;;;;0.43;0.43;;;;;;;;;;5012237;28;20209;-73
2021/05/18 17:32:44;;;;;;;0.87;0.60;;;;;;;;;;5012059;28;20503;-72
2021/05/18 17:35:48;;;;;;;1.03;0.60;;;;;;;;;;5011894;28;20178;-72
2021/05/18 17:38:55;;;;;;;1.60;0.50;;;;;;;;;;5011681;28;20173;-73
2021/05/18 17:41:59;;;;;;;1.90;0.50;;;;;;;;;;4999776;28;20221;-73
2021/05/18 17:45:05;;;;;;;2.00;0.50;;;;;;;;;;4988654;28;20178;-73
2021/05/18 17:48:10;;;;;;;1.07;0.67;;;;;;;;;;5011799;28;20177;-73
2021/05/18 17:51:14;;;;;;;0.90;0.47;;;;;;;;;;4985673;28;20197;-73
2021/05/18 17:54:22;;;;;;;1.00;0.50;;;;;;;;;;5011713;28;20201;-72
2021/05/18 17:57:26;;;;;;;1.60;0.70;;;;;;;;;;5012071;28;20189;-73
2021/05/18 18:00:31;;;;;;;1.77;0.60;;;;;;;;;;4990407;28;20189;-73
2021/05/18 18:03:35;;;;;;;1.10;0.60;;;;;;;;;;4987031;28;20206;-73
2021/05/18 18:06:39;;;;;;;1.00;0.50;;;;;;;;;;4998037;28;20181;-73
2021/05/18 18:09:45;;;;;;;2.70;0.60;;;;;;;;;;5011997;28;20217;-74
2021/05/18 18:12:51;;;;;;;0.70;0.50;;;;;;;;;;4999596;28;20217;-74
2021/05/18 18:15:55;;;;;;;0.63;0.50;;;;;;;;;;5004837;28;20205;-73
2021/05/18 18:18:59;;;;;;;0.67;0.50;;;;;;;;;;4999781;28;20202;-71
2021/05/18 18:22:04;;;;;;;1.10;0.60;;;;;;;;;;4999867;28;20225;-73
2021/05/18 18:25:09;;;;;;;1.00;0.63;;;;;;;;;;5010770;28;20213;-73
2021/05/18 18:28:17;;;;;;;0.47;0.47;;;;;;;;;;5005295;28;20197;-74
2021/05/18 18:31:22;;;;;;;1.77;0.60;;;;;;;;;;4980075;28;20182;-73
2021/05/18 18:34:28;;;;;;;0.87;0.60;;;;;;;;;;4979781;28;20186;-74
2021/05/18 18:37:37;;;;;;;0.40;0.40;;;;;;;;;;4990805;28;20640;-73
2021/05/18 18:40:41;;;;;;;1.17;0.60;;;;;;;;;;4980769;28;20186;-74
2021/05/18 18:43:46;;;;;;;0.97;0.70;;;;;;;;;;4996589;28;20193;-72
2021/05/18 18:46:50;;;;;;;1.70;0.90;;;;;;;;;;5005283;28;20186;-73
2021/05/18 18:49:54;;;;;;;1.93;1.40;;;;;;;;;;4990741;28;20202;-72
2021/05/18 18:56:18;;;;;;;2.73;1.40;;;;;;;;;;4981762;28;20186;-72
2021/05/18 18:59:22;;;;;;;4.80;1.40;;;;;;;;;;4992965;28;20186;-72
2021/05/18 19:02:38;;;;;;;3.07;0.80;;;;;;;;;;4997970;28;20221;-72
2021/05/18 19:15:16;;;;;;;1.90;1.10;;;;;;;;;;5009477;28;20205;-74
2021/05/18 19:18:20;;;;;;;1.07;0.90;;;;;;;;;;4998527;28;20189;-74
2021/05/18 19:21:24;;;;;;;1.70;1.03;;;;;;;;;;5007916;28;20186;-73
2021/05/18 19:24:29;;;;;;;1.33;0.70;;;;;;;;;;4978679;28;20178;-73
2021/05/18 19:27:39;;;;;;;1.33;0.80;;;;;;;;;;4988465;28;20625;-73
2021/05/18 19:30:44;;;;;;;2.13;1.17;;;;;;;;;;5009845;28;20213;-73
2021/05/18 19:33:51;;;;;;;1.40;0.80;;;;;;;;;;5000895;28;20201;-73
2021/05/18 19:50:07;;;;;;;0.93;0.80;;;;;;;;;;4978304;28;20209;-74
2021/05/18 19:53:14;;;;;;;1.43;0.63;;;;;;;;;;4995036;28;20213;-74
2021/05/18 19:56:29;;;;;;;3.07;0.87;;;;;;;;;;4995926;28;20182;-74
2021/05/18 20:22:32;;;;;;;4.57;0.87;;;;;;;;;;5009429;28;20213;-72
2021/05/18 20:25:36;;;;;;;1.67;0.80;;;;;;;;;;4981406;28;20201;-73
2021/05/18 20:28:40;;;;;;;1.77;0.87;;;;;;;;;;5000632;28;20185;-73
2021/05/18 20:31:45;;;;;;;1.23;0.70;;;;;;;;;;4997193;28;20221;-73
2021/05/18 20:41:16;;;;;;;1.43;0.67;;;;;;;;;;5007650;28;20189;-72
2021/05/18 20:44:21;;;;;;;1.00;0.83;;;;;;;;;;4996098;28;20194;-72
2021/05/18 20:47:25;;;;;;;0.70;0.50;;;;;;;;;;4981970;28;20182;-72
2021/05/18 20:50:32;;;;;;;2.03;1.10;;;;;;;;;;4994217;28;20210;-73
2021/05/18 20:53:37;;;;;;;1.60;1.20;;;;;;;;;;5007030;23;20229;-71
2021/05/18 20:56:41;;;;;;;1.60;0.90;;;;;;;;;;4997119;28;20205;-71
2021/05/18 20:59:45;;;;;;;2.27;0.90;;;;;;;;;;4988385;28;20199;-72
2021/05/18 21:02:50;;;;;;;1.47;1.17;;;;;;;;;;4996864;28;20221;-72
2021/05/18 21:06:00;;;;;;;1.37;1.00;;;;;;;;;;4966420;28;20206;-71
2021/05/18 21:09:15;;;;;;;1.83;1.23;;;;;;;;;;4958087;29;20179;-72
2021/05/18 21:18:46;;;;;;;3.87;1.17;;;;;;;;;;4965167;28;20546;-71
2021/05/18 21:21:50;;;;;;;1.90;1.20;;;;;;;;;;4957264;29;20560;-72
2021/05/18 21:24:54;;;;;;;1.10;1.00;;;;;;;;;;4945923;29;20199;-71
2021/05/18 21:27:58;;;;;;;1.20;1.00;;;;;;;;;;4977649;28;20203;-70
2021/05/18 21:31:02;;;;;;;1.37;0.90;;;;;;;;;;4976882;28;20226;-71
2021/05/18 21:34:08;;;;;;;2.33;0.90;;;;;;;;;;4976472;28;20183;-72
2021/05/18 21:37:12;;;;;;;1.17;1.00;;;;;;;;;;4988609;28;20198;-70
2021/05/18 21:40:23;;;;;;;1.50;1.10;;;;;;;;;;4995393;28;20171;-72
2021/05/18 21:43:28;;;;;;;2.23;0.90;;;;;;;;;;4956756;29;20227;-72
2021/05/18 21:46:32;;;;;;;1.20;1.10;;;;;;;;;;4970701;28;20202;-70
2021/05/18 21:49:36;;;;;;;4.20;1.33;;;;;;;;;;4956387;29;20670;-71
2021/05/18 21:52:41;;;;;;;1.20;1.00;;;;;;;;;;4961048;28;20214;-72
2021/05/18 21:55:46;;;;;;;5.87;0.90;;;;;;;;;;4964969;28;20197;-71
2021/05/18 21:58:50;;;;;;;3.27;1.23;;;;;;;;;;4977953;28;20191;-71
2021/05/18 22:01:57;;;;;;;1.63;1.00;;;;;;;;;;4976570;28;20435;-70
2021/05/18 22:05:03;;;;;;;1.40;1.00;;;;;;;;;;4956414;29;20518;-72
2021/05/18 22:08:17;;;;;;;2.97;0.97;;;;;;;;;;4979698;28;20534;-70
2021/05/18 22:11:34;;;;;;;2.60;0.80;;;;;;;;;;4984776;28;20215;-71
2021/05/18 22:27:50;;;;;;;1.53;0.90;;;;;;;;;;4956789;29;20188;-71
2021/05/18 22:30:54;;;;;;;1.10;0.80;;;;;;;;;;4970875;28;20221;-70
2021/05/18 22:33:58;;;;;;;1.27;0.93;;;;;;;;;;4995250;28;20178;-71
2021/05/18 22:37:02;;;;;;;1.10;1.00;;;;;;;;;;4979507;28;20560;-70
2021/05/18 22:40:08;;;;;;;1.33;0.87;;;;;;;;;;4975660;28;20179;-70
2021/05/18 22:43:13;;;;;;;4.27;1.00;;;;;;;;;;4983385;28;20565;-71
2021/05/18 22:46:17;;;;;;;1.70;1.47;;;;;;;;;;4993178;28;20198;-71
2021/05/18 22:49:22;;;;;;;1.37;1.10;;;;;;;;;;4994862;28;20190;-70
2021/05/18 22:52:26;;;;;;;1.10;0.97;;;;;;;;;;4977384;28;20230;-70
2021/05/18 22:55:31;;;;;;;1.67;1.03;;;;;;;;;;4993546;28;20206;-70
2021/05/18 22:58:36;;;;;;;2.37;1.07;;;;;;;;;;4993827;28;20210;-71
2021/05/18 23:01:40;;;;;;;1.80;1.20;;;;;;;;;;4994778;28;20213;-71
2021/05/18 23:04:44;;;;;;;1.53;1.23;;;;;;;;;;4955157;29;20176;-71
2021/05/18 23:07:49;;;;;;;1.73;1.37;;;;;;;;;;4956087;29;20179;-71
2021/05/18 23:10:53;;;;;;;2.80;1.50;;;;;;;;;;4964181;28;20214;-71
2021/05/18 23:14:03;;;;;;;2.80;1.67;;;;;;;;;;4977896;28;20657;-70
2021/05/18 23:17:07;;;;;;;2.40;1.13;;;;;;;;;;4974020;28;20658;-70
2021/05/18 23:20:16;;;;;;;3.20;1.20;;;;;;;;;;4975178;28;20179;-71
2021/05/18 23:23:20;;;;;;;1.50;1.30;;;;;;;;;;4973753;28;20217;-70
2021/05/18 23:26:24;;;;;;;2.07;1.57;;;;;;;;;;4993971;28;20177;-71
2021/05/18 23:29:28;;;;;;;2.40;1.40;;;;;;;;;;4974242;28;20195;-70
2021/05/18 23:32:32;;;;;;;1.40;1.10;;;;;;;;;;4978211;28;20574;-70
2021/05/18 23:35:37;;;;;;;1.97;1.20;;;;;;;;;;4993148;28;20178;-70
2021/05/18 23:38:41;;;;;;;3.57;1.30;;;;;;;;;;4994003;28;20182;-71
2021/05/18 23:41:45;;;;;;;1.53;1.00;;;;;;;;;;4992414;28;20213;-70
2021/05/18 23:44:50;;;;;;;1.93;1.03;;;;;;;;;;4957947;28;20188;-70
2021/05/18 23:47:55;;;;;;;3.43;1.13;;;;;;;;;;4989445;28;20206;-70
2021/05/18 23:51:00;;;;;;;2.30;0.93;;;;;;;;;;4994046;28;20554;-71
2021/05/18 23:54:06;;;;;;;1.27;0.90;;;;;;;;;;4961170;28;20202;-70
2021/05/18 23:57:10;;;;;;;3.73;1.57;;;;;;;;;;4976021;28;20206;-71
